sensor_id;sensor_type;location;lat;lon;timestamp;P1;durP1;ratioP1;P2;durP2;ratioP2
12892;SDS011;6514;48.606;9.222;2024-02-26T00:01:49;0.87;;;0.87;;
12892;SDS011;6514;48.606;9.222;2024-02-26T00:04:17;1.00;;;0.63;;
12892;SDS011;6514;48.606;9.222;2024-02-26T00:06:44;1.30;;;0.87;;
12892;SDS011;6514;48.606;9.222;2024-02-26T00:09:11;1.10;;;0.90;;
12892;SDS011;6514;48.606;9.222;2024-02-26T00:11:38;1.17;;;1.00;;
12892;SDS011;6514;48.606;9.222;2024-02-26T00:14:05;1.47;;;0.90;;
12892;SDS011;6514;48.606;9.222;2024-02-26T00:16:32;1.07;;;0.90;;
12892;SDS011;6514;48.606;9.222;2024-02-26T00:18:58;1.43;;;0.77;;
12892;SDS011;6514;48.606;9.222;2024-02-26T00:21:27;1.20;;;1.10;;
12892;SDS011;6514;48.606;9.222;2024-02-26T00:23:54;2.20;;;0.90;;
12892;SDS011;6514;48.606;9.222;2024-02-26T00:26:21;1.07;;;0.97;;
12892;SDS011;6514;48.606;9.222;2024-02-26T00:28:48;1.07;;;0.90;;
12892;SDS011;6514;48.606;9.222;2024-02-26T00:31:14;1.10;;;1.00;;
12892;SDS011;6514;48.606;9.222;2024-02-26T00:33:42;0.80;;;0.80;;
12892;SDS011;6514;48.606;9.222;2024-02-26T00:36:09;1.33;;;0.90;;
12892;SDS011;6514;48.606;9.222;2024-02-26T00:38:37;0.87;;;0.80;;
12892;SDS011;6514;48.606;9.222;2024-02-26T00:41:04;0.77;;;0.77;;
12892;SDS011;6514;48.606;9.222;2024-02-26T00:43:31;0.63;;;0.63;;
12892;SDS011;6514;48.606;9.222;2024-02-26T00:45:58;1.67;;;0.93;;
12892;SDS011;6514;48.606;9.222;2024-02-26T00:48:25;0.97;;;0.83;;
12892;SDS011;6514;48.606;9.222;2024-02-26T00:50:52;0.97;;;0.87;;
12892;SDS011;6514;48.606;9.222;2024-02-26T00:53:19;1.40;;;1.07;;
12892;SDS011;6514;48.606;9.222;2024-02-26T00:55:47;1.33;;;1.23;;
12892;SDS011;6514;48.606;9.222;2024-02-26T00:58:13;1.43;;;0.93;;
12892;SDS011;6514;48.606;9.222;2024-02-26T01:00:40;2.37;;;1.00;;
12892;SDS011;6514;48.606;9.222;2024-02-26T01:03:07;1.00;;;0.90;;
12892;SDS011;6514;48.606;9.222;2024-02-26T01:05:35;0.97;;;0.90;;
12892;SDS011;6514;48.606;9.222;2024-02-26T01:08:03;1.17;;;0.97;;
12892;SDS011;6514;48.606;9.222;2024-02-26T01:10:30;1.40;;;1.10;;
12892;SDS011;6514;48.606;9.222;2024-02-26T01:12:58;1.00;;;0.90;;
12892;SDS011;6514;48.606;9.222;2024-02-26T01:15:25;1.50;;;1.00;;
12892;SDS011;6514;48.606;9.222;2024-02-26T01:17:52;2.40;;;1.33;;
12892;SDS011;6514;48.606;9.222;2024-02-26T01:20:18;1.07;;;0.80;;
12892;SDS011;6514;48.606;9.222;2024-02-26T01:22:45;1.13;;;1.03;;
12892;SDS011;6514;48.606;9.222;2024-02-26T01:25:12;1.30;;;1.00;;
12892;SDS011;6514;48.606;9.222;2024-02-26T01:27:40;0.87;;;0.87;;
12892;SDS011;6514;48.606;9.222;2024-02-26T01:30:10;1.23;;;1.07;;
12892;SDS011;6514;48.606;9.222;2024-02-26T01:32:38;0.80;;;0.80;;
12892;SDS011;6514;48.606;9.222;2024-02-26T01:35:05;0.80;;;0.80;;
12892;SDS011;6514;48.606;9.222;2024-02-26T01:37:35;1.40;;;1.00;;
12892;SDS011;6514;48.606;9.222;2024-02-26T01:40:02;0.90;;;0.73;;
12892;SDS011;6514;48.606;9.222;2024-02-26T01:42:29;1.00;;;0.90;;
12892;SDS011;6514;48.606;9.222;2024-02-26T01:44:57;0.80;;;0.70;;
12892;SDS011;6514;48.606;9.222;2024-02-26T01:47:25;1.00;;;0.90;;
12892;SDS011;6514;48.606;9.222;2024-02-26T01:49:53;0.80;;;0.60;;
12892;SDS011;6514;48.606;9.222;2024-02-26T01:52:20;0.80;;;0.80;;
12892;SDS011;6514;48.606;9.222;2024-02-26T01:54:47;0.77;;;0.77;;
12892;SDS011;6514;48.606;9.222;2024-02-26T01:57:16;1.17;;;0.90;;
12892;SDS011;6514;48.606;9.222;2024-02-26T01:59:43;1.20;;;1.10;;
12892;SDS011;6514;48.606;9.222;2024-02-26T02:02:10;1.53;;;0.80;;
12892;SDS011;6514;48.606;9.222;2024-02-26T02:04:40;1.03;;;0.97;;
12892;SDS011;6514;48.606;9.222;2024-02-26T02:07:06;0.70;;;0.70;;
12892;SDS011;6514;48.606;9.222;2024-02-26T02:09:33;0.87;;;0.70;;
12892;SDS011;6514;48.606;9.222;2024-02-26T02:12:00;1.03;;;0.90;;
12892;SDS011;6514;48.606;9.222;2024-02-26T02:14:27;1.70;;;0.50;;
12892;SDS011;6514;48.606;9.222;2024-02-26T02:16:54;0.90;;;0.70;;
12892;SDS011;6514;48.606;9.222;2024-02-26T02:19:21;1.47;;;1.00;;
12892;SDS011;6514;48.606;9.222;2024-02-26T02:21:49;1.07;;;0.97;;
12892;SDS011;6514;48.606;9.222;2024-02-26T02:24:16;0.87;;;0.80;;
12892;SDS011;6514;48.606;9.222;2024-02-26T02:26:42;1.60;;;0.83;;
12892;SDS011;6514;48.606;9.222;2024-02-26T02:29:09;1.30;;;0.87;;
12892;SDS011;6514;48.606;9.222;2024-02-26T02:31:36;0.80;;;0.80;;
12892;SDS011;6514;48.606;9.222;2024-02-26T02:34:03;0.90;;;0.90;;
12892;SDS011;6514;48.606;9.222;2024-02-26T02:36:30;3.20;;;1.10;;
12892;SDS011;6514;48.606;9.222;2024-02-26T02:38:58;0.77;;;0.77;;
12892;SDS011;6514;48.606;9.222;2024-02-26T02:41:25;0.80;;;0.70;;
12892;SDS011;6514;48.606;9.222;2024-02-26T02:43:54;1.40;;;1.20;;
12892;SDS011;6514;48.606;9.222;2024-02-26T02:46:21;0.80;;;0.70;;
12892;SDS011;6514;48.606;9.222;2024-02-26T02:48:48;0.60;;;0.60;;
12892;SDS011;6514;48.606;9.222;2024-02-26T02:51:15;1.10;;;0.80;;
12892;SDS011;6514;48.606;9.222;2024-02-26T02:53:42;0.70;;;0.70;;
12892;SDS011;6514;48.606;9.222;2024-02-26T02:56:10;0.90;;;0.80;;
12892;SDS011;6514;48.606;9.222;2024-02-26T02:58:37;0.87;;;0.77;;
12892;SDS011;6514;48.606;9.222;2024-02-26T03:01:04;1.03;;;0.90;;
12892;SDS011;6514;48.606;9.222;2024-02-26T03:03:32;0.90;;;0.80;;
12892;SDS011;6514;48.606;9.222;2024-02-26T03:05:59;1.57;;;0.67;;
12892;SDS011;6514;48.606;9.222;2024-02-26T03:08:26;0.87;;;0.67;;
12892;SDS011;6514;48.606;9.222;2024-02-26T03:10:52;0.97;;;0.97;;
12892;SDS011;6514;48.606;9.222;2024-02-26T03:13:21;0.63;;;0.63;;
12892;SDS011;6514;48.606;9.222;2024-02-26T03:15:47;0.50;;;0.50;;
12892;SDS011;6514;48.606;9.222;2024-02-26T03:18:14;0.63;;;0.60;;
12892;SDS011;6514;48.606;9.222;2024-02-26T03:20:41;0.80;;;0.63;;
12892;SDS011;6514;48.606;9.222;2024-02-26T03:23:08;0.73;;;0.53;;
12892;SDS011;6514;48.606;9.222;2024-02-26T03:25:37;0.67;;;0.60;;
12892;SDS011;6514;48.606;9.222;2024-02-26T03:28:05;1.00;;;0.60;;
12892;SDS011;6514;48.606;9.222;2024-02-26T03:30:33;0.73;;;0.60;;
12892;SDS011;6514;48.606;9.222;2024-02-26T03:33:00;0.70;;;0.60;;
12892;SDS011;6514;48.606;9.222;2024-02-26T03:35:27;0.90;;;0.80;;
12892;SDS011;6514;48.606;9.222;2024-02-26T03:37:54;1.17;;;0.73;;
12892;SDS011;6514;48.606;9.222;2024-02-26T03:40:21;0.73;;;0.73;;
12892;SDS011;6514;48.606;9.222;2024-02-26T03:42:48;1.00;;;0.83;;
12892;SDS011;6514;48.606;9.222;2024-02-26T03:45:14;1.03;;;1.00;;
12892;SDS011;6514;48.606;9.222;2024-02-26T03:47:43;1.00;;;0.90;;
12892;SDS011;6514;48.606;9.222;2024-02-26T03:50:09;0.80;;;0.80;;
12892;SDS011;6514;48.606;9.222;2024-02-26T03:52:36;1.23;;;0.90;;
12892;SDS011;6514;48.606;9.222;2024-02-26T03:55:03;1.00;;;0.90;;
12892;SDS011;6514;48.606;9.222;2024-02-26T03:57:30;1.00;;;0.90;;
12892;SDS011;6514;48.606;9.222;2024-02-26T03:59:57;0.80;;;0.80;;
12892;SDS011;6514;48.606;9.222;2024-02-26T04:02:24;1.80;;;0.90;;
12892;SDS011;6514;48.606;9.222;2024-02-26T04:04:53;1.17;;;1.07;;
12892;SDS011;6514;48.606;9.222;2024-02-26T04:07:20;1.10;;;1.00;;
12892;SDS011;6514;48.606;9.222;2024-02-26T04:09:47;1.70;;;1.30;;
12892;SDS011;6514;48.606;9.222;2024-02-26T04:12:13;1.30;;;1.20;;
12892;SDS011;6514;48.606;9.222;2024-02-26T04:14:40;2.73;;;1.87;;
12892;SDS011;6514;48.606;9.222;2024-02-26T04:17:07;2.53;;;2.03;;
12892;SDS011;6514;48.606;9.222;2024-02-26T04:19:34;1.90;;;1.40;;
12892;SDS011;6514;48.606;9.222;2024-02-26T04:22:02;1.30;;;1.20;;
12892;SDS011;6514;48.606;9.222;2024-02-26T04:24:29;1.90;;;1.30;;
12892;SDS011;6514;48.606;9.222;2024-02-26T04:26:56;1.70;;;1.60;;
12892;SDS011;6514;48.606;9.222;2024-02-26T04:29:23;1.63;;;1.53;;
12892;SDS011;6514;48.606;9.222;2024-02-26T04:31:49;2.43;;;1.70;;
12892;SDS011;6514;48.606;9.222;2024-02-26T04:34:16;2.03;;;1.70;;
12892;SDS011;6514;48.606;9.222;2024-02-26T04:36:43;2.63;;;1.60;;
12892;SDS011;6514;48.606;9.222;2024-02-26T04:39:11;1.30;;;1.20;;
12892;SDS011;6514;48.606;9.222;2024-02-26T04:41:38;1.30;;;1.20;;
12892;SDS011;6514;48.606;9.222;2024-02-26T04:44:04;2.07;;;1.13;;
12892;SDS011;6514;48.606;9.222;2024-02-26T04:46:31;3.00;;;1.27;;
12892;SDS011;6514;48.606;9.222;2024-02-26T04:48:58;2.00;;;1.77;;
12892;SDS011;6514;48.606;9.222;2024-02-26T04:51:25;2.00;;;1.30;;
12892;SDS011;6514;48.606;9.222;2024-02-26T04:53:52;1.83;;;1.40;;
12892;SDS011;6514;48.606;9.222;2024-02-26T04:56:21;2.40;;;1.50;;
12892;SDS011;6514;48.606;9.222;2024-02-26T04:58:48;1.90;;;1.63;;
12892;SDS011;6514;48.606;9.222;2024-02-26T05:01:15;2.10;;;1.30;;
12892;SDS011;6514;48.606;9.222;2024-02-26T05:03:42;2.07;;;1.40;;
12892;SDS011;6514;48.606;9.222;2024-02-26T05:06:09;1.43;;;1.30;;
12892;SDS011;6514;48.606;9.222;2024-02-26T05:08:36;1.30;;;1.20;;
12892;SDS011;6514;48.606;9.222;2024-02-26T05:11:03;1.57;;;1.27;;
12892;SDS011;6514;48.606;9.222;2024-02-26T05:13:32;1.23;;;1.13;;
12892;SDS011;6514;48.606;9.222;2024-02-26T05:15:58;1.93;;;1.20;;
12892;SDS011;6514;48.606;9.222;2024-02-26T05:18:25;1.73;;;1.40;;
12892;SDS011;6514;48.606;9.222;2024-02-26T05:20:52;2.57;;;1.27;;
12892;SDS011;6514;48.606;9.222;2024-02-26T05:23:19;1.20;;;1.10;;
12892;SDS011;6514;48.606;9.222;2024-02-26T05:25:46;1.63;;;1.30;;
12892;SDS011;6514;48.606;9.222;2024-02-26T05:28:13;1.60;;;1.47;;
12892;SDS011;6514;48.606;9.222;2024-02-26T05:30:42;1.87;;;1.20;;
12892;SDS011;6514;48.606;9.222;2024-02-26T05:33:09;2.97;;;1.30;;
12892;SDS011;6514;48.606;9.222;2024-02-26T05:35:36;1.10;;;1.00;;
12892;SDS011;6514;48.606;9.222;2024-02-26T05:38:03;1.40;;;1.20;;
12892;SDS011;6514;48.606;9.222;2024-02-26T05:40:30;1.30;;;1.20;;
12892;SDS011;6514;48.606;9.222;2024-02-26T05:42:57;1.77;;;1.40;;
12892;SDS011;6514;48.606;9.222;2024-02-26T05:45:23;1.63;;;1.33;;
12892;SDS011;6514;48.606;9.222;2024-02-26T05:47:52;1.60;;;1.10;;
12892;SDS011;6514;48.606;9.222;2024-02-26T05:50:18;1.20;;;1.10;;
12892;SDS011;6514;48.606;9.222;2024-02-26T05:52:45;1.47;;;1.13;;
12892;SDS011;6514;48.606;9.222;2024-02-26T05:55:12;1.57;;;1.10;;
12892;SDS011;6514;48.606;9.222;2024-02-26T05:57:39;1.40;;;1.00;;
12892;SDS011;6514;48.606;9.222;2024-02-26T06:00:07;3.17;;;1.90;;
12892;SDS011;6514;48.606;9.222;2024-02-26T06:02:34;5.03;;;1.60;;
12892;SDS011;6514;48.606;9.222;2024-02-26T06:05:02;2.53;;;1.60;;
12892;SDS011;6514;48.606;9.222;2024-02-26T06:07:30;1.60;;;1.00;;
12892;SDS011;6514;48.606;9.222;2024-02-26T06:09:57;1.73;;;1.10;;
12892;SDS011;6514;48.606;9.222;2024-02-26T06:12:23;1.20;;;1.10;;
12892;SDS011;6514;48.606;9.222;2024-02-26T06:14:51;2.80;;;1.43;;
12892;SDS011;6514;48.606;9.222;2024-02-26T06:17:18;2.13;;;1.33;;
12892;SDS011;6514;48.606;9.222;2024-02-26T06:19:45;1.30;;;1.00;;
12892;SDS011;6514;48.606;9.222;2024-02-26T06:22:13;1.33;;;0.83;;
12892;SDS011;6514;48.606;9.222;2024-02-26T06:24:40;1.10;;;0.90;;
12892;SDS011;6514;48.606;9.222;2024-02-26T06:27:06;1.37;;;1.13;;
12892;SDS011;6514;48.606;9.222;2024-02-26T06:29:33;2.37;;;1.53;;
12892;SDS011;6514;48.606;9.222;2024-02-26T06:32:00;1.47;;;1.00;;
12892;SDS011;6514;48.606;9.222;2024-02-26T06:34:27;1.70;;;1.40;;
12892;SDS011;6514;48.606;9.222;2024-02-26T06:36:54;4.10;;;1.10;;
12892;SDS011;6514;48.606;9.222;2024-02-26T06:39:22;9.23;;;2.10;;
12892;SDS011;6514;48.606;9.222;2024-02-26T06:41:49;1.97;;;1.80;;
12892;SDS011;6514;48.606;9.222;2024-02-26T06:44:19;3.97;;;2.03;;
12892;SDS011;6514;48.606;9.222;2024-02-26T06:46:46;5.30;;;4.50;;
12892;SDS011;6514;48.606;9.222;2024-02-26T06:49:12;3.93;;;2.90;;
12892;SDS011;6514;48.606;9.222;2024-02-26T06:51:39;2.67;;;2.27;;
12892;SDS011;6514;48.606;9.222;2024-02-26T06:54:06;3.47;;;2.07;;
12892;SDS011;6514;48.606;9.222;2024-02-26T06:56:35;4.27;;;2.07;;
12892;SDS011;6514;48.606;9.222;2024-02-26T06:59:02;4.67;;;2.10;;
12892;SDS011;6514;48.606;9.222;2024-02-26T07:01:29;3.50;;;2.10;;
12892;SDS011;6514;48.606;9.222;2024-02-26T07:03:56;3.40;;;2.30;;
12892;SDS011;6514;48.606;9.222;2024-02-26T07:06:23;5.17;;;1.90;;
12892;SDS011;6514;48.606;9.222;2024-02-26T07:08:49;1.83;;;1.50;;
12892;SDS011;6514;48.606;9.222;2024-02-26T07:11:16;3.00;;;1.67;;
12892;SDS011;6514;48.606;9.222;2024-02-26T07:13:46;1.93;;;1.40;;
12892;SDS011;6514;48.606;9.222;2024-02-26T07:16:14;2.20;;;1.47;;
12892;SDS011;6514;48.606;9.222;2024-02-26T07:18:41;2.17;;;1.60;;
12892;SDS011;6514;48.606;9.222;2024-02-26T07:21:08;3.57;;;1.90;;
12892;SDS011;6514;48.606;9.222;2024-02-26T07:23:35;3.10;;;1.70;;
12892;SDS011;6514;48.606;9.222;2024-02-26T07:26:02;3.23;;;2.00;;
12892;SDS011;6514;48.606;9.222;2024-02-26T07:28:29;2.20;;;1.60;;
12892;SDS011;6514;48.606;9.222;2024-02-26T07:30:57;2.10;;;1.80;;
12892;SDS011;6514;48.606;9.222;2024-02-26T07:33:24;2.10;;;1.60;;
12892;SDS011;6514;48.606;9.222;2024-02-26T07:35:51;1.87;;;1.77;;
12892;SDS011;6514;48.606;9.222;2024-02-26T07:38:18;2.80;;;1.90;;
12892;SDS011;6514;48.606;9.222;2024-02-26T07:40:45;2.50;;;1.77;;
12892;SDS011;6514;48.606;9.222;2024-02-26T07:43:12;3.50;;;1.83;;
12892;SDS011;6514;48.606;9.222;2024-02-26T07:45:39;3.57;;;2.00;;
12892;SDS011;6514;48.606;9.222;2024-02-26T07:48:07;4.83;;;2.10;;
12892;SDS011;6514;48.606;9.222;2024-02-26T07:50:34;5.10;;;1.80;;
12892;SDS011;6514;48.606;9.222;2024-02-26T07:53:01;1.93;;;1.70;;
12892;SDS011;6514;48.606;9.222;2024-02-26T07:55:28;2.93;;;1.90;;
12892;SDS011;6514;48.606;9.222;2024-02-26T07:57:54;3.83;;;2.00;;
12892;SDS011;6514;48.606;9.222;2024-02-26T08:00:20;2.73;;;2.10;;
12892;SDS011;6514;48.606;9.222;2024-02-26T08:02:47;2.73;;;2.10;;
12892;SDS011;6514;48.606;9.222;2024-02-26T08:05:16;4.63;;;2.30;;
12892;SDS011;6514;48.606;9.222;2024-02-26T08:07:42;3.87;;;2.10;;
12892;SDS011;6514;48.606;9.222;2024-02-26T08:10:09;2.97;;;2.30;;
12892;SDS011;6514;48.606;9.222;2024-02-26T08:12:36;6.90;;;2.47;;
12892;SDS011;6514;48.606;9.222;2024-02-26T08:15:04;6.87;;;2.30;;
12892;SDS011;6514;48.606;9.222;2024-02-26T08:17:32;2.97;;;1.87;;
12892;SDS011;6514;48.606;9.222;2024-02-26T08:19:59;9.07;;;5.30;;
12892;SDS011;6514;48.606;9.222;2024-02-26T08:22:27;8.73;;;6.57;;
12892;SDS011;6514;48.606;9.222;2024-02-26T08:24:54;3.90;;;2.90;;
12892;SDS011;6514;48.606;9.222;2024-02-26T08:27:21;3.83;;;2.33;;
12892;SDS011;6514;48.606;9.222;2024-02-26T08:29:48;2.27;;;1.97;;
12892;SDS011;6514;48.606;9.222;2024-02-26T08:32:14;2.03;;;1.57;;
12892;SDS011;6514;48.606;9.222;2024-02-26T08:34:41;2.93;;;2.23;;
12892;SDS011;6514;48.606;9.222;2024-02-26T08:37:08;3.43;;;2.37;;
12892;SDS011;6514;48.606;9.222;2024-02-26T08:39:36;3.17;;;2.20;;
12892;SDS011;6514;48.606;9.222;2024-02-26T08:42:04;3.63;;;2.83;;
12892;SDS011;6514;48.606;9.222;2024-02-26T08:44:31;7.27;;;4.90;;
12892;SDS011;6514;48.606;9.222;2024-02-26T08:46:58;6.17;;;4.40;;
12892;SDS011;6514;48.606;9.222;2024-02-26T08:49:25;4.23;;;3.10;;
12892;SDS011;6514;48.606;9.222;2024-02-26T08:51:52;3.57;;;2.90;;
12892;SDS011;6514;48.606;9.222;2024-02-26T08:54:18;2.60;;;2.40;;
12892;SDS011;6514;48.606;9.222;2024-02-26T08:56:46;6.03;;;2.23;;
12892;SDS011;6514;48.606;9.222;2024-02-26T08:59:13;2.57;;;2.10;;
12892;SDS011;6514;48.606;9.222;2024-02-26T09:01:41;3.33;;;1.73;;
12892;SDS011;6514;48.606;9.222;2024-02-26T09:04:08;3.13;;;1.50;;
12892;SDS011;6514;48.606;9.222;2024-02-26T09:06:35;2.10;;;1.40;;
12892;SDS011;6514;48.606;9.222;2024-02-26T09:09:01;2.47;;;1.40;;
12892;SDS011;6514;48.606;9.222;2024-02-26T09:11:28;1.47;;;1.37;;
12892;SDS011;6514;48.606;9.222;2024-02-26T09:13:57;2.50;;;1.33;;
12892;SDS011;6514;48.606;9.222;2024-02-26T09:16:24;2.63;;;1.63;;
12892;SDS011;6514;48.606;9.222;2024-02-26T09:18:51;2.47;;;1.87;;
12892;SDS011;6514;48.606;9.222;2024-02-26T09:21:17;1.90;;;1.70;;
12892;SDS011;6514;48.606;9.222;2024-02-26T09:23:48;2.47;;;1.70;;
12892;SDS011;6514;48.606;9.222;2024-02-26T09:26:14;4.10;;;2.20;;
12892;SDS011;6514;48.606;9.222;2024-02-26T09:28:41;2.47;;;2.10;;
12892;SDS011;6514;48.606;9.222;2024-02-26T09:31:10;1.70;;;1.47;;
12892;SDS011;6514;48.606;9.222;2024-02-26T09:33:37;1.97;;;1.60;;
12892;SDS011;6514;48.606;9.222;2024-02-26T09:36:04;1.73;;;1.63;;
12892;SDS011;6514;48.606;9.222;2024-02-26T09:38:31;2.50;;;1.80;;
12892;SDS011;6514;48.606;9.222;2024-02-26T09:41:02;2.73;;;2.00;;
12892;SDS011;6514;48.606;9.222;2024-02-26T09:43:31;2.60;;;1.70;;
12892;SDS011;6514;48.606;9.222;2024-02-26T09:46:01;2.63;;;1.70;;
12892;SDS011;6514;48.606;9.222;2024-02-26T09:48:30;1.60;;;1.50;;
12892;SDS011;6514;48.606;9.222;2024-02-26T09:50:58;1.87;;;1.60;;
12892;SDS011;6514;48.606;9.222;2024-02-26T09:53:26;2.50;;;1.67;;
12892;SDS011;6514;48.606;9.222;2024-02-26T09:55:56;2.03;;;1.70;;
12892;SDS011;6514;48.606;9.222;2024-02-26T09:58:23;2.67;;;1.80;;
12892;SDS011;6514;48.606;9.222;2024-02-26T10:00:51;1.87;;;1.67;;
12892;SDS011;6514;48.606;9.222;2024-02-26T10:03:23;3.60;;;1.70;;
12892;SDS011;6514;48.606;9.222;2024-02-26T10:05:55;1.43;;;1.30;;
12892;SDS011;6514;48.606;9.222;2024-02-26T10:08:23;2.37;;;1.77;;
12892;SDS011;6514;48.606;9.222;2024-02-26T10:10:50;2.80;;;1.77;;
12892;SDS011;6514;48.606;9.222;2024-02-26T10:13:18;1.73;;;1.60;;
12892;SDS011;6514;48.606;9.222;2024-02-26T10:15:45;1.60;;;1.27;;
12892;SDS011;6514;48.606;9.222;2024-02-26T10:18:12;1.80;;;1.40;;
12892;SDS011;6514;48.606;9.222;2024-02-26T10:20:39;2.13;;;1.40;;
12892;SDS011;6514;48.606;9.222;2024-02-26T10:23:07;1.97;;;1.50;;
12892;SDS011;6514;48.606;9.222;2024-02-26T10:25:34;1.37;;;1.20;;
12892;SDS011;6514;48.606;9.222;2024-02-26T10:28:01;2.10;;;1.50;;
12892;SDS011;6514;48.606;9.222;2024-02-26T10:30:28;1.80;;;1.27;;
12892;SDS011;6514;48.606;9.222;2024-02-26T10:32:55;2.43;;;1.70;;
12892;SDS011;6514;48.606;9.222;2024-02-26T10:35:23;2.37;;;1.63;;
12892;SDS011;6514;48.606;9.222;2024-02-26T10:37:51;1.90;;;1.40;;
12892;SDS011;6514;48.606;9.222;2024-02-26T10:40:20;1.60;;;1.50;;
12892;SDS011;6514;48.606;9.222;2024-02-26T10:42:47;1.50;;;1.40;;
12892;SDS011;6514;48.606;9.222;2024-02-26T10:45:14;1.47;;;1.10;;
12892;SDS011;6514;48.606;9.222;2024-02-26T10:47:41;2.87;;;1.30;;
12892;SDS011;6514;48.606;9.222;2024-02-26T10:50:08;1.47;;;1.30;;
12892;SDS011;6514;48.606;9.222;2024-02-26T10:52:35;1.80;;;1.40;;
12892;SDS011;6514;48.606;9.222;2024-02-26T10:55:03;2.07;;;1.40;;
12892;SDS011;6514;48.606;9.222;2024-02-26T10:57:34;2.30;;;1.70;;
12892;SDS011;6514;48.606;9.222;2024-02-26T11:00:04;2.00;;;1.50;;
12892;SDS011;6514;48.606;9.222;2024-02-26T11:02:35;1.63;;;1.40;;
12892;SDS011;6514;48.606;9.222;2024-02-26T11:05:02;2.87;;;1.50;;
12892;SDS011;6514;48.606;9.222;2024-02-26T11:07:30;1.27;;;1.17;;
12892;SDS011;6514;48.606;9.222;2024-02-26T11:09:57;1.87;;;1.40;;
12892;SDS011;6514;48.606;9.222;2024-02-26T11:12:26;1.67;;;1.40;;
12892;SDS011;6514;48.606;9.222;2024-02-26T11:14:57;1.77;;;1.27;;
12892;SDS011;6514;48.606;9.222;2024-02-26T11:17:26;2.23;;;1.30;;
12892;SDS011;6514;48.606;9.222;2024-02-26T11:19:56;1.57;;;1.30;;
12892;SDS011;6514;48.606;9.222;2024-02-26T11:22:24;2.10;;;1.70;;
12892;SDS011;6514;48.606;9.222;2024-02-26T11:24:52;4.47;;;1.60;;
12892;SDS011;6514;48.606;9.222;2024-02-26T11:27:19;2.30;;;1.80;;
12892;SDS011;6514;48.606;9.222;2024-02-26T11:29:50;2.60;;;1.50;;
12892;SDS011;6514;48.606;9.222;2024-02-26T11:32:20;2.43;;;1.50;;
12892;SDS011;6514;48.606;9.222;2024-02-26T11:34:47;1.70;;;1.33;;
12892;SDS011;6514;48.606;9.222;2024-02-26T11:37:15;1.73;;;1.40;;
12892;SDS011;6514;48.606;9.222;2024-02-26T11:39:43;1.33;;;1.17;;
12892;SDS011;6514;48.606;9.222;2024-02-26T11:42:13;1.57;;;1.47;;
12892;SDS011;6514;48.606;9.222;2024-02-26T11:44:40;2.60;;;1.70;;
12892;SDS011;6514;48.606;9.222;2024-02-26T11:47:11;1.70;;;1.50;;
12892;SDS011;6514;48.606;9.222;2024-02-26T11:49:40;1.93;;;1.60;;
12892;SDS011;6514;48.606;9.222;2024-02-26T11:52:07;2.10;;;1.40;;
12892;SDS011;6514;48.606;9.222;2024-02-26T11:54:38;2.20;;;1.43;;
12892;SDS011;6514;48.606;9.222;2024-02-26T11:57:24;2.03;;;1.40;;
12892;SDS011;6514;48.606;9.222;2024-02-26T11:59:52;1.70;;;1.53;;
12892;SDS011;6514;48.606;9.222;2024-02-26T12:05:20;3.20;;;1.70;;
12892;SDS011;6514;48.606;9.222;2024-02-26T12:07:49;2.50;;;1.43;;
12892;SDS011;6514;48.606;9.222;2024-02-26T12:10:23;2.17;;;1.60;;
12892;SDS011;6514;48.606;9.222;2024-02-26T12:15:37;3.10;;;1.70;;
12892;SDS011;6514;48.606;9.222;2024-02-26T12:18:06;2.90;;;1.27;;
12892;SDS011;6514;48.606;9.222;2024-02-26T12:20:37;1.80;;;1.37;;
12892;SDS011;6514;48.606;9.222;2024-02-26T12:23:04;1.50;;;1.40;;
12892;SDS011;6514;48.606;9.222;2024-02-26T12:25:31;1.80;;;1.53;;
12892;SDS011;6514;48.606;9.222;2024-02-26T12:27:59;1.50;;;1.40;;
12892;SDS011;6514;48.606;9.222;2024-02-26T12:30:26;1.47;;;1.30;;
12892;SDS011;6514;48.606;9.222;2024-02-26T12:32:55;1.60;;;1.50;;
12892;SDS011;6514;48.606;9.222;2024-02-26T12:35:23;1.57;;;1.23;;
12892;SDS011;6514;48.606;9.222;2024-02-26T12:37:51;2.03;;;1.50;;
12892;SDS011;6514;48.606;9.222;2024-02-26T12:40:19;1.47;;;1.37;;
12892;SDS011;6514;48.606;9.222;2024-02-26T12:42:46;1.27;;;1.17;;
12892;SDS011;6514;48.606;9.222;2024-02-26T12:45:14;1.80;;;1.40;;
12892;SDS011;6514;48.606;9.222;2024-02-26T12:47:41;2.40;;;1.43;;
12892;SDS011;6514;48.606;9.222;2024-02-26T12:50:09;1.80;;;1.67;;
12892;SDS011;6514;48.606;9.222;2024-02-26T12:52:37;1.37;;;1.23;;
12892;SDS011;6514;48.606;9.222;2024-02-26T12:55:07;1.93;;;1.30;;
12892;SDS011;6514;48.606;9.222;2024-02-26T12:57:35;1.73;;;1.20;;
12892;SDS011;6514;48.606;9.222;2024-02-26T13:00:04;1.43;;;1.20;;
12892;SDS011;6514;48.606;9.222;2024-02-26T13:02:34;1.60;;;1.17;;
12892;SDS011;6514;48.606;9.222;2024-02-26T13:05:02;2.40;;;1.77;;
12892;SDS011;6514;48.606;9.222;2024-02-26T13:07:30;1.90;;;1.17;;
12892;SDS011;6514;48.606;9.222;2024-02-26T13:09:58;2.47;;;1.60;;
12892;SDS011;6514;48.606;9.222;2024-02-26T13:12:26;2.03;;;1.20;;
12892;SDS011;6514;48.606;9.222;2024-02-26T13:14:59;1.20;;;1.07;;
12892;SDS011;6514;48.606;9.222;2024-02-26T13:17:26;1.50;;;1.27;;
12892;SDS011;6514;48.606;9.222;2024-02-26T13:19:54;1.10;;;1.00;;
12892;SDS011;6514;48.606;9.222;2024-02-26T13:22:21;1.63;;;1.10;;
12892;SDS011;6514;48.606;9.222;2024-02-26T13:24:55;1.20;;;1.10;;
12892;SDS011;6514;48.606;9.222;2024-02-26T13:27:23;1.37;;;1.00;;
12892;SDS011;6514;48.606;9.222;2024-02-26T13:30:02;0.90;;;0.90;;
12892;SDS011;6514;48.606;9.222;2024-02-26T13:32:31;0.80;;;0.80;;
12892;SDS011;6514;48.606;9.222;2024-02-26T13:35:06;1.20;;;0.87;;
12892;SDS011;6514;48.606;9.222;2024-02-26T13:37:33;1.40;;;0.97;;
12892;SDS011;6514;48.606;9.222;2024-02-26T13:40:00;1.00;;;0.73;;
12892;SDS011;6514;48.606;9.222;2024-02-26T13:42:31;0.70;;;0.50;;
12892;SDS011;6514;48.606;9.222;2024-02-26T13:44:58;0.70;;;0.70;;
12892;SDS011;6514;48.606;9.222;2024-02-26T13:47:26;1.30;;;1.00;;
12892;SDS011;6514;48.606;9.222;2024-02-26T13:49:53;0.97;;;0.87;;
12892;SDS011;6514;48.606;9.222;2024-02-26T13:52:20;0.70;;;0.70;;
12892;SDS011;6514;48.606;9.222;2024-02-26T13:54:48;0.57;;;0.53;;
12892;SDS011;6514;48.606;9.222;2024-02-26T13:57:16;0.80;;;0.80;;
12892;SDS011;6514;48.606;9.222;2024-02-26T13:59:43;3.03;;;0.87;;
12892;SDS011;6514;48.606;9.222;2024-02-26T14:02:10;2.03;;;0.90;;
12892;SDS011;6514;48.606;9.222;2024-02-26T14:04:38;1.03;;;0.80;;
12892;SDS011;6514;48.606;9.222;2024-02-26T14:07:05;1.47;;;0.93;;
12892;SDS011;6514;48.606;9.222;2024-02-26T14:09:33;1.90;;;0.80;;
12892;SDS011;6514;48.606;9.222;2024-02-26T14:12:00;1.57;;;0.80;;
12892;SDS011;6514;48.606;9.222;2024-02-26T14:14:27;0.97;;;0.87;;
12892;SDS011;6514;48.606;9.222;2024-02-26T14:16:54;1.10;;;0.80;;
12892;SDS011;6514;48.606;9.222;2024-02-26T14:19:21;0.70;;;0.70;;
12892;SDS011;6514;48.606;9.222;2024-02-26T14:21:49;1.00;;;0.90;;
12892;SDS011;6514;48.606;9.222;2024-02-26T14:24:16;0.70;;;0.70;;
12892;SDS011;6514;48.606;9.222;2024-02-26T14:26:43;0.97;;;0.80;;
12892;SDS011;6514;48.606;9.222;2024-02-26T14:29:09;8.00;;;1.67;;
12892;SDS011;6514;48.606;9.222;2024-02-26T14:31:36;1.30;;;1.10;;
12892;SDS011;6514;48.606;9.222;2024-02-26T14:34:03;1.00;;;0.97;;
12892;SDS011;6514;48.606;9.222;2024-02-26T14:36:30;1.20;;;1.10;;
12892;SDS011;6514;48.606;9.222;2024-02-26T14:38:58;2.40;;;1.27;;
12892;SDS011;6514;48.606;9.222;2024-02-26T14:41:25;1.57;;;1.17;;
12892;SDS011;6514;48.606;9.222;2024-02-26T14:43:52;1.93;;;1.00;;
12892;SDS011;6514;48.606;9.222;2024-02-26T14:46:18;1.10;;;0.90;;
12892;SDS011;6514;48.606;9.222;2024-02-26T14:48:45;1.17;;;1.07;;
12892;SDS011;6514;48.606;9.222;2024-02-26T14:51:12;1.30;;;1.20;;
12892;SDS011;6514;48.606;9.222;2024-02-26T14:53:39;1.53;;;1.10;;
12892;SDS011;6514;48.606;9.222;2024-02-26T14:56:07;1.67;;;1.43;;
12892;SDS011;6514;48.606;9.222;2024-02-26T14:58:34;2.50;;;1.03;;
12892;SDS011;6514;48.606;9.222;2024-02-26T15:01:03;1.40;;;1.20;;
12892;SDS011;6514;48.606;9.222;2024-02-26T15:03:29;2.33;;;1.30;;
12892;SDS011;6514;48.606;9.222;2024-02-26T15:05:56;1.20;;;1.10;;
12892;SDS011;6514;48.606;9.222;2024-02-26T15:08:23;1.73;;;1.00;;